sensor_id;sensor_type;location;lat;lon;timestamp;pressure;altitude;pressure_sealevel;temperature;humidity
44481;BME280;30184;42.018;23.670;2023-05-20T00:00:30;91869.44;;;8.85;90.51
44481;BME280;30184;42.018;23.670;2023-05-20T00:02:59;91862.63;;;9.00;91.20
44481;BME280;30184;42.018;23.670;2023-05-20T00:05:28;91860.75;;;8.97;91.02
44481;BME280;30184;42.018;23.670;2023-05-20T00:07:58;91829.44;;;8.73;91.27
44481;BME280;30184;42.018;23.670;2023-05-20T00:10:28;91870.09;;;8.92;91.08
44481;BME280;30184;42.018;23.670;2023-05-20T00:12:57;91851.63;;;8.87;90.59
44481;BME280;30184;42.018;23.670;2023-05-20T00:15:27;91823.09;;;8.59;90.03
44481;BME280;30184;42.018;23.670;2023-05-20T00:17:56;91864.16;;;8.78;89.84
44481;BME280;30184;42.018;23.670;2023-05-20T00:20:25;91858.88;;;8.71;89.77
44481;BME280;30184;42.018;23.670;2023-05-20T00:22:54;91862.81;;;8.63;90.40
44481;BME280;30184;42.018;23.670;2023-05-20T00:25:23;91862.13;;;8.58;91.51
44481;BME280;30184;42.018;23.670;2023-05-20T00:27:54;91865.25;;;8.57;91.82
44481;BME280;30184;42.018;23.670;2023-05-20T00:30:23;91852.88;;;8.56;91.88
44481;BME280;30184;42.018;23.670;2023-05-20T00:32:52;91790.06;;;7.91;92.16
44481;BME280;30184;42.018;23.670;2023-05-20T00:35:22;91811.69;;;8.18;91.83
44481;BME280;30184;42.018;23.670;2023-05-20T00:37:51;91828.53;;;8.29;91.58
44481;BME280;30184;42.018;23.670;2023-05-20T00:40:21;91849.63;;;8.41;91.33
44481;BME280;30184;42.018;23.670;2023-05-20T00:42:51;91845.41;;;8.40;91.32
44481;BME280;30184;42.018;23.670;2023-05-20T00:45:21;91931.16;;;8.40;91.32
44481;BME280;30184;42.018;23.670;2023-05-20T00:47:51;91860.13;;;8.36;91.98
44481;BME280;30184;42.018;23.670;2023-05-20T00:50:23;91856.31;;;8.33;92.26
44481;BME280;30184;42.018;23.670;2023-05-20T00:52:53;91851.69;;;8.34;92.13
44481;BME280;30184;42.018;23.670;2023-05-20T00:55:23;91858.66;;;8.31;92.17
44481;BME280;30184;42.018;23.670;2023-05-20T00:57:53;91859.44;;;8.28;92.25
44481;BME280;30184;42.018;23.670;2023-05-20T01:00:24;91855.25;;;8.23;92.65
44481;BME280;30184;42.018;23.670;2023-05-20T01:02:54;91807.06;;;7.88;92.54
44481;BME280;30184;42.018;23.670;2023-05-20T01:05:23;91853.38;;;8.20;92.92
44481;BME280;30184;42.018;23.670;2023-05-20T01:07:52;91848.38;;;8.19;93.09
44481;BME280;30184;42.018;23.670;2023-05-20T01:10:23;91861.88;;;8.19;92.94
44481;BME280;30184;42.018;23.670;2023-05-20T01:12:57;91853.41;;;8.17;92.96
44481;BME280;30184;42.018;23.670;2023-05-20T01:15:31;91851.53;;;8.14;93.08
44481;BME280;30184;42.018;23.670;2023-05-20T01:18:02;91808.66;;;7.85;93.12
44481;BME280;30184;42.018;23.670;2023-05-20T01:20:32;91845.41;;;8.10;93.45
44481;BME280;30184;42.018;23.670;2023-05-20T01:23:04;91853.59;;;8.03;93.62
44481;BME280;30184;42.018;23.670;2023-05-20T01:25:33;91836.22;;;8.04;93.65
44481;BME280;30184;42.018;23.670;2023-05-20T01:28:03;91832.78;;;8.00;93.70
44481;BME280;30184;42.018;23.670;2023-05-20T01:30:37;91846.00;;;7.94;93.83
44481;BME280;30184;42.018;23.670;2023-05-20T01:33:10;91834.41;;;7.94;93.75
44481;BME280;30184;42.018;23.670;2023-05-20T01:35:40;91679.19;;;6.84;93.79
44481;BME280;30184;42.018;23.670;2023-05-20T01:38:12;91842.97;;;7.88;93.88
44481;BME280;30184;42.018;23.670;2023-05-20T01:40:43;91836.44;;;7.86;93.85
44481;BME280;30184;42.018;23.670;2023-05-20T01:43:15;91831.44;;;7.84;93.99
44481;BME280;30184;42.018;23.670;2023-05-20T01:45:45;91833.78;;;7.82;93.86
44481;BME280;30184;42.018;23.670;2023-05-20T01:48:14;91827.25;;;7.80;93.84
44481;BME280;30184;42.018;23.670;2023-05-20T01:50:43;91840.44;;;7.74;93.87
44481;BME280;30184;42.018;23.670;2023-05-20T01:53:14;91819.28;;;7.69;93.80
44481;BME280;30184;42.018;23.670;2023-05-20T01:55:43;91773.03;;;7.33;93.82
44481;BME280;30184;42.018;23.670;2023-05-20T01:58:12;91826.22;;;7.70;93.79
44481;BME280;30184;42.018;23.670;2023-05-20T02:00:41;91564.72;;;5.83;93.49
44481;BME280;30184;42.018;23.670;2023-05-20T02:03:10;91822.81;;;7.66;93.95
44481;BME280;30184;42.018;23.670;2023-05-20T02:05:40;91817.03;;;7.64;94.03
44481;BME280;30184;42.018;23.670;2023-05-20T02:08:09;91818.59;;;7.62;94.19
44481;BME280;30184;42.018;23.670;2023-05-20T02:10:40;91820.97;;;7.60;94.29
44481;BME280;30184;42.018;23.670;2023-05-20T02:13:09;91815.97;;;7.58;94.25
44481;BME280;30184;42.018;23.670;2023-05-20T02:15:40;91822.56;;;7.54;94.51
44481;BME280;30184;42.018;23.670;2023-05-20T02:18:09;91818.72;;;7.51;94.28
44481;BME280;30184;42.018;23.670;2023-05-20T02:20:40;91813.38;;;7.47;94.66
44481;BME280;30184;42.018;23.670;2023-05-20T02:23:09;91792.78;;;7.27;94.80
44481;BME280;30184;42.018;23.670;2023-05-20T02:25:40;91823.81;;;7.45;94.75
44481;BME280;30184;42.018;23.670;2023-05-20T02:28:11;91820.38;;;7.41;94.85
44481;BME280;30184;42.018;23.670;2023-05-20T02:30:40;91817.72;;;7.38;95.12
44481;BME280;30184;42.018;23.670;2023-05-20T02:33:09;91817.47;;;7.25;95.43
44481;BME280;30184;42.018;23.670;2023-05-20T02:35:39;91824.00;;;7.28;95.39
44481;BME280;30184;42.018;23.670;2023-05-20T02:38:09;91799.63;;;7.01;95.29
44481;BME280;30184;42.018;23.670;2023-05-20T02:40:38;91810.31;;;7.11;95.32
44481;BME280;30184;42.018;23.670;2023-05-20T02:43:09;91830.59;;;7.23;95.46
44481;BME280;30184;42.018;23.670;2023-05-20T02:45:38;91750.28;;;6.63;95.26
44481;BME280;30184;42.018;23.670;2023-05-20T02:48:07;91832.59;;;7.19;95.32
44481;BME280;30184;42.018;23.670;2023-05-20T02:50:38;91838.41;;;7.14;95.51
44481;BME280;30184;42.018;23.670;2023-05-20T02:53:07;91837.28;;;7.11;95.53
44481;BME280;30184;42.018;23.670;2023-05-20T02:55:36;91835.00;;;7.10;95.73
44481;BME280;30184;42.018;23.670;2023-05-20T02:58:06;91836.91;;;7.09;95.85
44481;BME280;30184;42.018;23.670;2023-05-20T03:00:37;91845.41;;;7.08;95.90
44481;BME280;30184;42.018;23.670;2023-05-20T03:03:08;91841.56;;;7.05;95.77
44481;BME280;30184;42.018;23.670;2023-05-20T03:05:38;91842.72;;;7.08;95.86
44481;BME280;30184;42.018;23.670;2023-05-20T03:08:09;91838.88;;;7.05;95.96
44481;BME280;30184;42.018;23.670;2023-05-20T03:10:38;91834.66;;;7.04;95.97
44481;BME280;30184;42.018;23.670;2023-05-20T03:13:07;91836.94;;;7.06;96.13
44481;BME280;30184;42.018;23.670;2023-05-20T03:15:39;91801.38;;;6.77;96.14
44481;BME280;30184;42.018;23.670;2023-05-20T03:18:09;91845.41;;;7.08;96.18
44481;BME280;30184;42.018;23.670;2023-05-20T03:20:39;91837.69;;;7.10;96.19
44481;BME280;30184;42.018;23.670;2023-05-20T03:23:09;91871.72;;;6.97;96.01
44481;BME280;30184;42.018;23.670;2023-05-20T03:25:39;91841.53;;;7.13;96.00
44481;BME280;30184;42.018;23.670;2023-05-20T03:28:08;91836.91;;;7.13;95.88
44481;BME280;30184;42.018;23.670;2023-05-20T03:30:39;91836.91;;;7.13;95.80
44481;BME280;30184;42.018;23.670;2023-05-20T03:33:09;91846.09;;;7.16;95.81
44481;BME280;30184;42.018;23.670;2023-05-20T03:35:39;91825.50;;;6.95;95.76
44481;BME280;30184;42.018;23.670;2023-05-20T03:38:08;91843.75;;;7.21;95.79
44481;BME280;30184;42.018;23.670;2023-05-20T03:40:38;91844.53;;;7.22;95.54
44481;BME280;30184;42.018;23.670;2023-05-20T03:43:07;91850.63;;;7.26;95.67
44481;BME280;30184;42.018;23.670;2023-05-20T03:45:36;91849.47;;;7.27;95.38
44481;BME280;30184;42.018;23.670;2023-05-20T03:48:08;91858.72;;;7.26;95.22
44481;BME280;30184;42.018;23.670;2023-05-20T03:50:39;91859.47;;;7.30;95.17
44481;BME280;30184;42.018;23.670;2023-05-20T03:53:08;91859.41;;;7.33;95.14
44481;BME280;30184;42.018;23.670;2023-05-20T03:55:40;91855.75;;;7.17;95.07
44481;BME280;30184;42.018;23.670;2023-05-20T03:58:12;91718.81;;;6.49;95.10
44481;BME280;30184;42.018;23.670;2023-05-20T04:00:42;91858.16;;;7.45;95.21
44481;BME280;30184;42.018;23.670;2023-05-20T04:03:13;91856.19;;;7.49;95.25
44481;BME280;30184;42.018;23.670;2023-05-20T04:05:42;91867.31;;;7.55;95.25
44481;BME280;30184;42.018;23.670;2023-05-20T04:08:18;91847.84;;;7.33;94.87
44481;BME280;30184;42.018;23.670;2023-05-20T04:10:48;91866.09;;;7.59;94.60
44481;BME280;30184;42.018;23.670;2023-05-20T04:13:17;91795.94;;;7.22;94.29
44481;BME280;30184;42.018;23.670;2023-05-20T04:15:46;91868.72;;;7.66;94.38
44481;BME280;30184;42.018;23.670;2023-05-20T04:18:17;91859.78;;;7.69;94.24
44481;BME280;30184;42.018;23.670;2023-05-20T04:20:46;91846.19;;;8.07;94.60
44481;BME280;30184;42.018;23.670;2023-05-20T04:23:16;91843.13;;;8.62;93.72
44481;BME280;30184;42.018;23.670;2023-05-20T04:25:45;91840.09;;;9.50;90.84
44481;BME280;30184;42.018;23.670;2023-05-20T04:28:15;91861.69;;;10.13;87.86
44481;BME280;30184;42.018;23.670;2023-05-20T04:30:44;91835.25;;;10.72;84.88
44481;BME280;30184;42.018;23.670;2023-05-20T04:33:14;91825.63;;;11.16;80.40
44481;BME280;30184;42.018;23.670;2023-05-20T04:35:46;91819.69;;;11.67;77.29
44481;BME280;30184;42.018;23.670;2023-05-20T04:38:15;91827.22;;;12.17;75.41
44481;BME280;30184;42.018;23.670;2023-05-20T04:40:45;91825.88;;;12.50;73.25
44481;BME280;30184;42.018;23.670;2023-05-20T04:43:14;91823.03;;;12.92;71.81
44481;BME280;30184;42.018;23.670;2023-05-20T04:45:44;91820.41;;;13.14;70.40
44481;BME280;30184;42.018;23.670;2023-05-20T04:48:14;91817.13;;;13.53;68.67
44481;BME280;30184;42.018;23.670;2023-05-20T04:50:45;91814.13;;;13.73;67.56
44481;BME280;30184;42.018;23.670;2023-05-20T04:53:15;91809.38;;;14.08;66.91
44481;BME280;30184;42.018;23.670;2023-05-20T04:55:44;91816.22;;;14.12;66.21
44481;BME280;30184;42.018;23.670;2023-05-20T04:58:14;91796.78;;;14.32;65.83
44481;BME280;30184;42.018;23.670;2023-05-20T05:00:44;91812.47;;;14.72;64.17
44481;BME280;30184;42.018;23.670;2023-05-20T05:03:13;91798.91;;;14.90;62.76
44481;BME280;30184;42.018;23.670;2023-05-20T05:05:43;91749.94;;;14.74;62.15
44481;BME280;30184;42.018;23.670;2023-05-20T05:08:13;91781.91;;;15.04;62.67
44481;BME280;30184;42.018;23.670;2023-05-20T05:10:49;91803.16;;;15.58;60.83
44481;BME280;30184;42.018;23.670;2023-05-20T05:13:18;91799.06;;;15.63;59.88
44481;BME280;30184;42.018;23.670;2023-05-20T05:15:48;91803.31;;;15.91;58.32
44481;BME280;30184;42.018;23.670;2023-05-20T05:18:26;91788.84;;;16.27;57.05
44481;BME280;30184;42.018;23.670;2023-05-20T05:21:00;91771.16;;;16.37;57.00
44481;BME280;30184;42.018;23.670;2023-05-20T05:23:31;91768.28;;;16.32;56.41
44481;BME280;30184;42.018;23.670;2023-05-20T05:26:01;91759.47;;;16.28;57.13
44481;BME280;30184;42.018;23.670;2023-05-20T05:28:30;91781.94;;;16.41;57.26
44481;BME280;30184;42.018;23.670;2023-05-20T05:30:59;91786.69;;;16.22;58.08
44481;BME280;30184;42.018;23.670;2023-05-20T05:33:29;91772.28;;;16.03;57.13
44481;BME280;30184;42.018;23.670;2023-05-20T05:35:58;91777.75;;;16.03;58.41
44481;BME280;30184;42.018;23.670;2023-05-20T05:38:30;91768.47;;;16.10;59.26
44481;BME280;30184;42.018;23.670;2023-05-20T05:40:59;91769.81;;;16.15;59.73
44481;BME280;30184;42.018;23.670;2023-05-20T05:43:29;91703.31;;;15.54;61.23
44481;BME280;30184;42.018;23.670;2023-05-20T05:45:59;91760.00;;;15.72;62.37
44481;BME280;30184;42.018;23.670;2023-05-20T05:48:29;91769.56;;;15.58;62.66
44481;BME280;30184;42.018;23.670;2023-05-20T05:50:59;91765.41;;;15.17;63.05
44481;BME280;30184;42.018;23.670;2023-05-20T05:53:28;91767.91;;;15.70;62.36
44481;BME280;30184;42.018;23.670;2023-05-20T05:55:59;91776.72;;;15.64;60.07
44481;BME280;30184;42.018;23.670;2023-05-20T05:58:29;91773.22;;;15.55;59.28
44481;BME280;30184;42.018;23.670;2023-05-20T06:00:58;91771.50;;;15.48;60.21
44481;BME280;30184;42.018;23.670;2023-05-20T06:03:27;91730.63;;;15.08;62.34
44481;BME280;30184;42.018;23.670;2023-05-20T06:05:57;91690.63;;;14.74;63.35
44481;BME280;30184;42.018;23.670;2023-05-20T06:08:27;91765.72;;;15.28;62.08
44481;BME280;30184;42.018;23.670;2023-05-20T06:10:56;91769.78;;;15.14;62.14
44481;BME280;30184;42.018;23.670;2023-05-20T06:13:26;91760.22;;;15.10;62.77
44481;BME280;30184;42.018;23.670;2023-05-20T06:15:56;91762.50;;;15.11;60.91
44481;BME280;30184;42.018;23.670;2023-05-20T06:18:26;91756.44;;;15.07;60.41
44481;BME280;30184;42.018;23.670;2023-05-20T06:21:00;91758.41;;;15.07;60.54
44481;BME280;30184;42.018;23.670;2023-05-20T06:23:29;91749.91;;;15.14;59.83
44481;BME280;30184;42.018;23.670;2023-05-20T06:26:01;91750.53;;;15.18;60.12
44481;BME280;30184;42.018;23.670;2023-05-20T06:28:33;91744.63;;;15.28;59.71
44481;BME280;30184;42.018;23.670;2023-05-20T06:31:02;91746.59;;;15.37;59.09
44481;BME280;30184;42.018;23.670;2023-05-20T06:33:33;91739.16;;;15.47;59.71
44481;BME280;30184;42.018;23.670;2023-05-20T06:36:09;91732.50;;;15.57;59.10
44481;BME280;30184;42.018;23.670;2023-05-20T06:38:39;91734.00;;;15.67;59.15
44481;BME280;30184;42.018;23.670;2023-05-20T06:41:08;91727.31;;;15.77;57.97
44481;BME280;30184;42.018;23.670;2023-05-20T06:43:39;91717.72;;;15.91;58.85
44481;BME280;30184;42.018;23.670;2023-05-20T06:46:10;91725.00;;;16.12;58.37
44481;BME280;30184;42.018;23.670;2023-05-20T06:48:46;91719.00;;;16.23;56.30
44481;BME280;30184;42.018;23.670;2023-05-20T06:51:16;91727.84;;;16.18;55.47
44481;BME280;30184;42.018;23.670;2023-05-20T06:53:48;91725.72;;;16.13;55.55
44481;BME280;30184;42.018;23.670;2023-05-20T06:56:17;91712.97;;;16.10;55.77
44481;BME280;30184;42.018;23.670;2023-05-20T06:58:47;91719.31;;;16.25;54.37
44481;BME280;30184;42.018;23.670;2023-05-20T07:01:17;91713.44;;;16.50;56.06
44481;BME280;30184;42.018;23.670;2023-05-20T07:03:47;91709.25;;;16.73;57.04
44481;BME280;30184;42.018;23.670;2023-05-20T07:06:18;91701.88;;;16.88;54.12
44481;BME280;30184;42.018;23.670;2023-05-20T07:08:47;91696.16;;;17.01;52.59
44481;BME280;30184;42.018;23.670;2023-05-20T07:11:17;91693.31;;;17.19;54.05
44481;BME280;30184;42.018;23.670;2023-05-20T07:13:48;91658.41;;;17.20;52.25
44481;BME280;30184;42.018;23.670;2023-05-20T07:16:17;91679.31;;;17.56;52.92
44481;BME280;30184;42.018;23.670;2023-05-20T07:18:52;91683.91;;;17.73;53.53
44481;BME280;30184;42.018;23.670;2023-05-20T07:21:21;91675.78;;;17.94;53.69
44481;BME280;30184;42.018;23.670;2023-05-20T07:24:09;91621.34;;;17.77;48.79
44481;BME280;30184;42.018;23.670;2023-05-20T07:26:38;91664.88;;;18.28;48.78
44481;BME280;30184;42.018;23.670;2023-05-20T07:29:09;91662.78;;;18.38;48.53
44481;BME280;30184;42.018;23.670;2023-05-20T07:31:39;91666.56;;;18.70;47.61
44481;BME280;30184;42.018;23.670;2023-05-20T07:34:08;91661.28;;;18.87;47.91
44481;BME280;30184;42.018;23.670;2023-05-20T07:36:37;91659.94;;;18.97;47.82
44481;BME280;30184;42.018;23.670;2023-05-20T07:39:06;91660.97;;;19.20;47.60
44481;BME280;30184;42.018;23.670;2023-05-20T07:41:39;91493.63;;;18.32;47.15
44481;BME280;30184;42.018;23.670;2023-05-20T07:44:10;91653.06;;;19.48;46.62
44481;BME280;30184;42.018;23.670;2023-05-20T07:46:43;91648.25;;;19.63;45.61
44481;BME280;30184;42.018;23.670;2023-05-20T07:49:13;91639.59;;;19.75;46.20
44481;BME280;30184;42.018;23.670;2023-05-20T07:51:42;91625.56;;;19.99;44.70
44481;BME280;30184;42.018;23.670;2023-05-20T07:54:14;91626.75;;;20.19;43.83
44481;BME280;30184;42.018;23.670;2023-05-20T07:56:46;91613.44;;;20.43;43.69
44481;BME280;30184;42.018;23.670;2023-05-20T07:59:17;91619.81;;;20.60;42.34
44481;BME280;30184;42.018;23.670;2023-05-20T08:01:48;91615.13;;;20.72;43.11
44481;BME280;30184;42.018;23.670;2023-05-20T08:04:19;91608.44;;;20.84;41.26
44481;BME280;30184;42.018;23.670;2023-05-20T08:06:49;91616.72;;;20.84;40.32
44481;BME280;30184;42.018;23.670;2023-05-20T08:09:24;91606.63;;;20.75;42.92
44481;BME280;30184;42.018;23.670;2023-05-20T08:11:55;91614.25;;;20.92;40.17
44481;BME280;30184;42.018;23.670;2023-05-20T08:14:26;91615.06;;;21.03;41.25
44481;BME280;30184;42.018;23.670;2023-05-20T08:16:55;91605.38;;;21.19;39.90
44481;BME280;30184;42.018;23.670;2023-05-20T08:19:24;91603.78;;;21.07;37.99
44481;BME280;30184;42.018;23.670;2023-05-20T08:21:53;91598.94;;;20.96;38.61
44481;BME280;30184;42.018;23.670;2023-05-20T08:24:23;91605.69;;;20.90;39.73
44481;BME280;30184;42.018;23.670;2023-05-20T08:26:52;91598.72;;;20.94;39.16
44481;BME280;30184;42.018;23.670;2023-05-20T08:29:26;91601.84;;;21.18;39.39
44481;BME280;30184;42.018;23.670;2023-05-20T08:31:55;91593.38;;;21.33;40.35
44481;BME280;30184;42.018;23.670;2023-05-20T08:34:25;91579.91;;;21.57;39.61
44481;BME280;30184;42.018;23.670;2023-05-20T08:36:55;91592.69;;;21.55;38.92
44481;BME280;30184;42.018;23.670;2023-05-20T08:39:24;91597.59;;;21.17;40.14
44481;BME280;30184;42.018;23.670;2023-05-20T08:41:57;91602.03;;;21.09;38.61
44481;BME280;30184;42.018;23.670;2023-05-20T08:44:28;91602.44;;;20.91;36.36
44481;BME280;30184;42.018;23.670;2023-05-20T08:46:58;91611.41;;;20.75;36.90
44481;BME280;30184;42.018;23.670;2023-05-20T08:49:27;91610.75;;;20.54;37.68
44481;BME280;30184;42.018;23.670;2023-05-20T08:51:59;91592.25;;;20.29;36.96
44481;BME280;30184;42.018;23.670;2023-05-20T08:54:38;91612.97;;;20.19;36.61
44481;BME280;30184;42.018;23.670;2023-05-20T08:57:09;91600.31;;;20.01;37.16
44481;BME280;30184;42.018;23.670;2023-05-20T08:59:44;91614.56;;;19.99;38.04
44481;BME280;30184;42.018;23.670;2023-05-20T09:02:13;91543.88;;;19.65;38.22
44481;BME280;30184;42.018;23.670;2023-05-20T09:04:42;91612.03;;;20.27;37.42
44481;BME280;30184;42.018;23.670;2023-05-20T09:07:12;91614.19;;;20.43;39.39
44481;BME280;30184;42.018;23.670;2023-05-20T09:09:41;91625.19;;;20.38;37.77
44481;BME280;30184;42.018;23.670;2023-05-20T09:12:10;91613.56;;;20.28;37.59
44481;BME280;30184;42.018;23.670;2023-05-20T09:14:39;91582.16;;;19.89;37.43
44481;BME280;30184;42.018;23.670;2023-05-20T09:17:11;91612.38;;;20.09;37.96
44481;BME280;30184;42.018;23.670;2023-05-20T09:19:41;91611.56;;;20.29;37.70
44481;BME280;30184;42.018;23.670;2023-05-20T09:22:10;91601.50;;;20.57;36.58
44481;BME280;30184;42.018;23.670;2023-05-20T09:24:39;91556.69;;;20.68;37.03
44481;BME280;30184;42.018;23.670;2023-05-20T09:27:09;91590.06;;;21.23;37.12
44481;BME280;30184;42.018;23.670;2023-05-20T09:29:38;91592.06;;;21.23;36.23
44481;BME280;30184;42.018;23.670;2023-05-20T09:32:07;91597.28;;;21.10;36.13
44481;BME280;30184;42.018;23.670;2023-05-20T09:34:39;91598.72;;;21.00;36.23
44481;BME280;30184;42.018;23.670;2023-05-20T09:37:09;91592.75;;;21.07;36.09
44481;BME280;30184;42.018;23.670;2023-05-20T09:39:55;91594.03;;;21.17;36.12
44481;BME280;30184;42.018;23.670;2023-05-20T09:42:30;91565.19;;;21.12;36.31
44481;BME280;30184;42.018;23.670;2023-05-20T09:45:04;91591.09;;;21.32;35.36
44481;BME280;30184;42.018;23.670;2023-05-20T09:47:38;91581.81;;;21.29;34.22
44481;BME280;30184;42.018;23.670;2023-05-20T09:50:09;91582.38;;;21.39;33.85
44481;BME280;30184;42.018;23.670;2023-05-20T09:52:40;91587.34;;;21.29;34.81
44481;BME280;30184;42.018;23.670;2023-05-20T09:55:09;91587.69;;;21.00;35.44
44481;BME280;30184;42.018;23.670;2023-05-20T09:57:39;91580.13;;;20.89;36.03
44481;BME280;30184;42.018;23.670;2023-05-20T10:00:09;91585.00;;;20.68;37.08
44481;BME280;30184;42.018;23.670;2023-05-20T10:02:44;91612.81;;;20.33;37.83
44481;BME280;30184;42.018;23.670;2023-05-20T10:05:18;91586.19;;;20.19;38.29
44481;BME280;30184;42.018;23.670;2023-05-20T10:08:18;91596.69;;;20.21;38.38
44481;BME280;30184;42.018;23.670;2023-05-20T10:10:55;91565.59;;;19.83;38.35
44481;BME280;30184;42.018;23.670;2023-05-20T10:13:41;91570.59;;;19.85;38.54
44481;BME280;30184;42.018;23.670;2023-05-20T10:16:19;91584.47;;;19.96;39.02
44481;BME280;30184;42.018;23.670;2023-05-20T10:19:05;91581.25;;;20.03;39.68
44481;BME280;30184;42.018;23.670;2023-05-20T10:21:38;91585.63;;;20.15;39.61
44481;BME280;30184;42.018;23.670;2023-05-20T10:24:08;91577.97;;;20.30;40.09
44481;BME280;30184;42.018;23.670;2023-05-20T10:26:38;91578.53;;;20.34;39.13
44481;BME280;30184;42.018;23.670;2023-05-20T10:29:14;91557.59;;;20.17;40.32
44481;BME280;30184;42.018;23.670;2023-05-20T10:31:44;91559.63;;;20.22;40.21
44481;BME280;30184;42.018;23.670;2023-05-20T10:34:14;91553.16;;;20.30;39.96
44481;BME280;30184;42.018;23.670;2023-05-20T10:36:56;91557.81;;;20.44;39.43
44481;BME280;30184;42.018;23.670;2023-05-20T10:39:27;91504.16;;;20.40;39.72
44481;BME280;30184;42.018;23.670;2023-05-20T10:42:06;91543.78;;;20.96;38.31
44481;BME280;30184;42.018;23.670;2023-05-20T10:44:42;91550.19;;;21.19;38.30
44481;BME280;30184;42.018;23.670;2023-05-20T10:47:12;91539.41;;;21.27;36.68
44481;BME280;30184;42.018;23.670;2023-05-20T10:49:44;91548.50;;;20.84;35.89
44481;BME280;30184;42.018;23.670;2023-05-20T10:52:16;91531.50;;;20.43;36.37
44481;BME280;30184;42.018;23.670;2023-05-20T10:54:46;91522.03;;;20.19;36.99
44481;BME280;30184;42.018;23.670;2023-05-20T10:57:17;91565.31;;;20.12;37.02
44481;BME280;30184;42.018;23.670;2023-05-20T10:59:47;91574.03;;;20.05;37.98
44481;BME280;30184;42.018;23.670;2023-05-20T11:02:16;91552.81;;;19.80;38.40
44481;BME280;30184;42.018;23.670;2023-05-20T11:04:46;91581.72;;;19.96;39.58
44481;BME280;30184;42.018;23.670;2023-05-20T11:07:25;91609.09;;;20.05;41.08
44481;BME280;30184;42.018;23.670;2023-05-20T11:09:55;91542.78;;;19.51;42.68
44481;BME280;30184;42.018;23.670;2023-05-20T11:12:25;91616.06;;;19.49;44.21
44481;BME280;30184;42.018;23.670;2023-05-20T11:14:55;91578.50;;;19.25;45.39
44481;BME280;30184;42.018;23.670;2023-05-20T11:17:24;91617.22;;;19.42;45.34
44481;BME280;30184;42.018;23.670;2023-05-20T11:19:53;91615.38;;;19.33;45.17
44481;BME280;30184;42.018;23.670;2023-05-20T11:22:22;91618.53;;;19.06;45.10
44481;BME280;30184;42.018;23.670;2023-05-20T11:24:53;91615.38;;;19.33;45.51
44481;BME280;30184;42.018;23.670;2023-05-20T11:27:22;91611.38;;;19.55;44.96
44481;BME280;30184;42.018;23.670;2023-05-20T11:29:51;91600.84;;;19.53;43.14
44481;BME280;30184;42.018;23.670;2023-05-20T11:32:21;91598.22;;;19.64;43.51
44481;BME280;30184;42.018;23.670;2023-05-20T11:34:50;91601.91;;;19.87;43.65
44481;BME280;30184;42.018;23.670;2023-05-20T11:37:20;91601.59;;;19.80;43.77
44481;BME280;30184;42.018;23.670;2023-05-20T11:40:03;91542.19;;;19.47;44.47
44481;BME280;30184;42.018;23.670;2023-05-20T11:42:36;91599.03;;;20.02;44.47
44481;BME280;30184;42.018;23.670;2023-05-20T11:45:06;91562.94;;;19.43;43.13
44481;BME280;30184;42.018;23.670;2023-05-20T11:47:35;91571.91;;;19.89;43.51
44481;BME280;30184;42.018;23.670;2023-05-20T11:50:05;91604.63;;;19.82;43.85
44481;BME280;30184;42.018;23.670;2023-05-20T11:52:37;91602.13;;;19.58;43.83
44481;BME280;30184;42.018;23.670;2023-05-20T11:55:10;91592.16;;;19.60;45.41
44481;BME280;30184;42.018;23.670;2023-05-20T11:57:40;91556.34;;;19.55;44.29
44481;BME280;30184;42.018;23.670;2023-05-20T12:00:10;91579.44;;;19.94;44.00
44481;BME280;30184;42.018;23.670;2023-05-20T12:02:39;91574.78;;;20.06;42.93
44481;BME280;30184;42.018;23.670;2023-05-20T12:05:08;91553.91;;;19.62;41.97
44481;BME280;30184;42.018;23.670;2023-05-20T12:07:38;91532.59;;;19.89;43.09
44481;BME280;30184;42.018;23.670;2023-05-20T12:10:09;91524.63;;;20.33;42.55
44481;BME280;30184;42.018;23.670;2023-05-20T12:12:40;91552.28;;;20.87;41.86
44481;BME280;30184;42.018;23.670;2023-05-20T12:15:10;91545.91;;;21.23;41.89
44481;BME280;30184;42.018;23.670;2023-05-20T12:17:44;91546.44;;;21.33;41.12
44481;BME280;30184;42.018;23.670;2023-05-20T12:20:15;91561.91;;;21.14;40.92
44481;BME280;30184;42.018;23.670;2023-05-20T12:22:45;91568.78;;;20.39;43.53
44481;BME280;30184;42.018;23.670;2023-05-20T12:25:17;91564.50;;;20.01;44.94
44481;BME280;30184;42.018;23.670;2023-05-20T12:27:47;91449.84;;;18.89;46.14
44481;BME280;30184;42.018;23.670;2023-05-20T12:30:18;91573.81;;;19.31;47.06
44481;BME280;30184;42.018;23.670;2023-05-20T12:32:49;91464.63;;;18.10;48.50
44481;BME280;30184;42.018;23.670;2023-05-20T12:35:24;91495.47;;;18.40;49.45
44481;BME280;30184;42.018;23.670;2023-05-20T12:37:54;91572.69;;;19.18;50.02
44481;BME280;30184;42.018;23.670;2023-05-20T12:40:25;91566.91;;;19.16;51.00
44481;BME280;30184;42.018;23.670;2023-05-20T12:42:54;91559.94;;;19.20;50.70
44481;BME280;30184;42.018;23.670;2023-05-20T12:45:23;91560.16;;;19.17;50.14
44481;BME280;30184;42.018;23.670;2023-05-20T12:47:53;91549.53;;;19.30;49.36
44481;BME280;30184;42.018;23.670;2023-05-20T12:50:23;91491.19;;;19.00;48.80
44481;BME280;30184;42.018;23.670;2023-05-20T12:52:52;91443.38;;;18.92;47.94
44481;BME280;30184;42.018;23.670;2023-05-20T12:55:21;91540.84;;;19.37;49.07
44481;BME280;30184;42.018;23.670;2023-05-20T12:57:53;91532.41;;;19.20;49.51
44481;BME280;30184;42.018;23.670;2023-05-20T13:00:23;91538.03;;;19.06;50.36
44481;BME280;30184;42.018;23.670;2023-05-20T13:02:52;91538.03;;;18.85;51.61
44481;BME280;30184;42.018;23.670;2023-05-20T13:05:21;91500.63;;;18.33;53.21
44481;BME280;30184;42.018;23.670;2023-05-20T13:07:52;91553.56;;;18.68;53.96
44481;BME280;30184;42.018;23.670;2023-05-20T13:10:21;91563.53;;;18.66;53.62